createdAt,value
2022-10-01T00:00:09.024Z,100267.50
2022-10-01T00:03:12.052Z,100267.97
2022-10-01T00:06:18.825Z,100265.19
2022-10-01T00:09:20.891Z,100252.94
2022-10-01T00:12:23.157Z,100247.41
2022-10-01T00:15:26.462Z,100254.56
2022-10-01T00:18:29.637Z,100296.09
2022-10-01T00:21:32.435Z,100365.75
2022-10-01T00:24:36.600Z,100326.16
2022-10-01T00:27:38.671Z,100222.12
2022-10-01T00:30:46.056Z,100232.78
2022-10-01T00:33:48.491Z,100275.34
2022-10-01T00:36:50.773Z,100268.66
2022-10-01T00:39:52.843Z,100253.22
2022-10-01T00:42:55.399Z,100258.75
2022-10-01T00:46:00.226Z,100257.87
2022-10-01T00:49:10.747Z,100253.13
2022-10-01T00:52:16.026Z,100248.38
2022-10-01T00:55:31.498Z,100245.28
2022-10-01T00:58:33.864Z,100257.94
2022-10-01T01:01:37.299Z,100249.28
2022-10-01T01:04:40.458Z,100246.16
2022-10-01T01:07:47.510Z,100254.81
2022-10-01T01:10:50.179Z,100257.16
2022-10-01T01:14:06.366Z,100256.34
2022-10-01T01:17:15.389Z,100253.91
2022-10-01T01:20:44.102Z,100242.84
2022-10-01T01:24:12.350Z,100246.81
2022-10-01T01:27:16.367Z,100245.62
2022-10-01T01:30:18.657Z,100253.91
2022-10-01T01:33:22.255Z,100266.63
2022-10-01T01:36:32.322Z,100273.78
2022-10-01T01:39:35.368Z,100270.53
2022-10-01T01:42:39.707Z,100266.63
2022-10-01T01:45:45.390Z,100253.91
2022-10-01T01:48:51.139Z,100255.09
2022-10-01T01:52:22.735Z,100256.25
2022-10-01T01:55:26.130Z,100260.63
2022-10-01T01:58:29.125Z,100249.78
2022-10-01T02:01:39.562Z,100255.31
2022-10-01T02:04:47.082Z,100249.78
2022-10-01T02:08:01.800Z,100255.31
2022-10-01T02:11:07.026Z,100248.19
2022-10-01T02:14:21.210Z,100230.78
2022-10-01T02:17:31.477Z,100228.00
2022-10-01T02:20:42.707Z,100232.28
2022-10-01T02:23:58.126Z,100226.75
2022-10-01T02:27:03.365Z,100233.44
2022-10-01T02:30:10.017Z,100248.00
2022-10-01T02:33:14.870Z,100257.47
2022-10-01T02:36:18.455Z,100255.06
2022-10-01T02:39:21.954Z,100259.81
2022-10-01T02:42:26.073Z,100258.19
2022-10-01T02:45:32.201Z,100244.63
2022-10-01T02:48:36.021Z,100259.59
2022-10-01T02:51:43.568Z,100251.69
2022-10-01T02:54:55.759Z,100249.69
2022-10-01T02:57:57.776Z,100251.69
2022-10-01T03:01:00.015Z,100252.12
2022-10-01T03:04:02.368Z,100254.50
2022-10-01T03:07:04.690Z,100261.66
2022-10-01T03:10:07.672Z,100260.84
2022-10-01T03:13:09.982Z,100264.44
2022-10-01T03:16:12.088Z,100261.66
2022-10-01T03:19:14.394Z,100242.28
2022-10-01T03:22:22.643Z,100242.28
2022-10-01T03:25:25.100Z,100247.72
2022-10-01T03:28:27.570Z,100238.28
2022-10-01T03:31:30.279Z,100239.91
2022-10-01T03:34:32.424Z,100252.47
2022-10-01T03:37:34.642Z,100261.94
2022-10-01T03:40:39.116Z,100273.81
2022-10-01T03:43:41.516Z,100306.22
2022-10-01T03:46:43.852Z,100304.59
2022-10-01T03:49:46.150Z,100295.16
2022-10-01T03:52:50.647Z,100298.34
2022-10-01T03:55:53.647Z,100288.91
2022-10-01T03:58:55.690Z,100277.13
2022-10-01T04:01:58.051Z,100273.19
2022-10-01T04:05:00.437Z,100260.97
2022-10-01T04:08:02.475Z,100263.72
2022-10-01T04:11:08.234Z,100244.78
2022-10-01T04:14:10.294Z,100245.59
2022-10-01T04:17:12.604Z,100242.47
2022-10-01T04:20:14.661Z,100246.41
2022-10-01T04:23:17.000Z,100244.09
2022-10-01T04:26:19.180Z,100249.63
2022-10-01T04:29:21.415Z,100245.69
2022-10-01T04:32:23.394Z,100240.16
2022-10-01T04:35:28.471Z,100244.09
2022-10-01T04:38:30.487Z,100249.63
2022-10-01T04:41:33.279Z,100254.34
2022-10-01T04:44:36.134Z,100263.03
2022-10-01T04:47:38.439Z,100251.94
2022-10-01T04:50:40.541Z,100236.94
2022-10-01T04:53:43.003Z,100250.31
2022-10-01T04:56:44.953Z,100252.28
2022-10-01T04:59:47.673Z,100255.88
2022-10-01T05:02:50.178Z,100251.13
2022-10-01T05:05:52.447Z,100263.03
2022-10-01T05:08:54.386Z,100251.94
2022-10-01T05:11:56.645Z,100249.63
2022-10-01T05:15:01.201Z,100259.88
2022-10-01T05:18:03.486Z,100267.84
2022-10-01T05:21:06.135Z,100281.69
2022-10-01T05:24:08.408Z,100301.41
2022-10-01T05:27:13.306Z,100316.56
2022-10-01T05:30:24.207Z,100312.44
2022-10-01T05:33:30.376Z,100302.28
2022-10-01T05:36:32.639Z,100291.31
2022-10-01T05:39:39.030Z,100289.78
2022-10-01T05:42:45.243Z,100293.03
2022-10-01T05:45:47.268Z,100283.63
2022-10-01T05:48:51.269Z,100281.31
2022-10-01T05:51:53.313Z,100270.34
2022-10-01T05:54:55.594Z,100272.75
2022-10-01T05:58:00.427Z,100269.16
2022-10-01T06:01:04.078Z,100273.56
2022-10-01T06:04:06.441Z,100281.53
2022-10-01T06:07:08.797Z,100272.88
2022-10-01T06:10:11.331Z,100266.63
2022-10-01T06:13:17.645Z,100259.47
2022-10-01T06:16:20.928Z,100258.75
2022-10-01T06:19:23.015Z,100252.50
2022-10-01T06:22:25.334Z,100243.91
2022-10-01T06:25:31.139Z,100248.03
2022-10-01T06:28:33.506Z,100228.00
2022-10-01T06:31:35.801Z,100223.44
2022-10-01T06:34:38.313Z,100214.47
2022-10-01T06:37:40.294Z,100233.59
2022-10-01T06:40:42.574Z,100261.37
2022-10-01T06:43:44.548Z,100269.62
2022-10-01T06:46:46.831Z,100260.50
2022-10-01T06:49:49.572Z,100260.59
2022-10-01T06:52:52.558Z,100247.16
2022-10-01T06:55:54.792Z,100249.56
2022-10-01T06:58:57.019Z,100246.50
2022-10-01T07:01:59.095Z,100247.41
2022-10-01T07:05:01.666Z,100257.75
2022-10-01T07:08:03.935Z,100258.19
2022-10-01T07:11:06.214Z,100257.03
2022-10-01T07:14:09.115Z,100254.72
2022-10-01T07:17:11.484Z,100254.31
2022-10-01T07:20:14.872Z,100249.31
2022-10-01T07:23:17.665Z,100247.00
2022-10-01T07:26:19.860Z,100244.66
2022-10-01T07:29:23.911Z,100242.31
2022-10-01T07:32:26.167Z,100235.97
2022-10-01T07:35:29.689Z,100230.41
2022-10-01T07:38:33.463Z,100226.50
2022-10-01T07:41:36.101Z,100214.31
2022-10-01T07:44:38.270Z,100215.62
2022-10-01T07:47:43.591Z,100210.97
2022-10-01T07:50:45.883Z,100209.94
2022-10-01T07:53:48.170Z,100208.03
2022-10-01T07:56:52.937Z,100227.19
2022-10-01T07:59:56.186Z,100225.66
2022-10-01T08:02:58.519Z,100217.69
2022-10-01T08:06:03.433Z,100211.50
2022-10-01T08:09:06.197Z,100219.50
2022-10-01T08:12:08.480Z,100232.72
2022-10-01T08:15:11.327Z,100226.87
2022-10-01T08:18:13.882Z,100218.22
2022-10-01T08:21:16.079Z,100217.19
2022-10-01T08:24:18.415Z,100220.09
2022-10-01T08:27:21.727Z,100223.66
2022-10-01T08:30:24.420Z,100221.28
2022-10-01T08:33:26.454Z,100219.34
2022-10-01T08:36:28.743Z,100236.47
2022-10-01T08:39:30.745Z,100216.97
2022-10-01T08:42:55.932Z,100208.25
2022-10-01T08:46:01.656Z,100187.66
2022-10-01T08:49:04.045Z,100190.84
2022-10-01T08:52:26.455Z,100178.16
2022-10-01T08:55:36.313Z,100181.28
2022-10-01T08:58:43.647Z,100177.72
2022-10-01T09:01:45.966Z,100178.16
2022-10-01T09:04:51.088Z,100180.63
2022-10-01T09:08:16.570Z,100181.47
2022-10-01T09:11:30.966Z,100181.97
2022-10-01T09:14:36.764Z,100172.25
2022-10-01T09:18:01.702Z,100183.84
2022-10-01T09:21:07.796Z,100178.63
2022-10-01T09:24:25.085Z,100175.97
2022-10-01T09:27:27.711Z,100180.28
2022-10-01T09:30:30.219Z,100175.31
2022-10-01T09:33:37.323Z,100179.09
2022-10-01T09:36:44.093Z,100173.31
2022-10-01T09:39:49.086Z,100169.59
2022-10-01T09:42:51.503Z,100165.78
2022-10-01T09:45:54.214Z,100162.84
2022-10-01T09:49:03.327Z,100164.28
2022-10-01T09:52:28.249Z,100173.75
2022-10-01T09:55:34.149Z,100169.59
2022-10-01T09:58:37.498Z,100149.44
2022-10-01T10:01:39.741Z,100159.53
2022-10-01T10:04:42.059Z,100150.25
2022-10-01T10:07:45.771Z,100146.31
2022-10-01T10:10:52.176Z,100144.84
2022-10-01T10:14:02.866Z,100135.41
2022-10-01T10:17:17.960Z,100141.69
2022-10-01T10:20:31.191Z,100128.94
2022-10-01T10:23:34.351Z,100126.44
2022-10-01T10:26:38.804Z,100120.53
2022-10-01T10:29:43.721Z,100117.34
2022-10-01T10:32:49.019Z,100117.38
2022-10-01T10:36:01.939Z,100113.59
2022-10-01T10:39:06.349Z,100114.84
2022-10-01T10:42:14.487Z,100116.06
2022-10-01T10:45:21.458Z,100101.19
2022-10-01T10:48:26.217Z,100098.72
2022-10-01T10:51:28.445Z,100090.84
2022-10-01T10:54:37.928Z,100091.97
2022-10-01T10:57:39.957Z,100092.28
2022-10-01T11:00:48.537Z,100088.94
2022-10-01T11:03:53.403Z,100087.94
2022-10-01T11:06:56.684Z,100087.22
2022-10-01T11:10:18.748Z,100083.16
2022-10-01T11:13:26.860Z,100085.22
2022-10-01T11:16:41.271Z,100069.41
2022-10-01T11:20:03.344Z,100065.97
2022-10-01T11:23:28.126Z,100053.28
2022-10-01T11:26:53.310Z,100045.28
2022-10-01T11:30:03.360Z,100037.25
2022-10-01T11:33:06.017Z,100030.16
2022-10-01T11:36:41.314Z,100021.09
2022-10-01T11:39:44.942Z,100013.78
2022-10-01T11:42:50.960Z,100016.69
2022-10-01T11:46:00.629Z,100013.47
2022-10-01T11:49:11.299Z,100006.69
2022-10-01T11:52:20.725Z,100004.28
2022-10-01T11:55:54.103Z,99993.78
2022-10-01T11:59:01.879Z,99986.72
2022-10-01T12:02:15.382Z,99994.00
2022-10-01T12:05:27.133Z,99990.75
2022-10-01T12:08:31.899Z,99979.47
2022-10-01T12:11:42.460Z,99981.66
2022-10-01T12:14:57.632Z,99978.75
2022-10-01T12:18:00.149Z,99962.84
2022-10-01T12:21:04.088Z,99967.12
2022-10-01T12:24:24.611Z,99963.34
2022-10-01T12:27:53.567Z,99962.13
2022-10-01T12:31:09.249Z,99966.91
2022-10-01T12:34:17.410Z,99965.72
2022-10-01T12:37:20.932Z,99962.31
2022-10-01T12:40:30.937Z,99962.50
2022-10-01T12:43:51.631Z,99959.94
2022-10-01T12:47:04.580Z,99959.19
2022-10-01T12:50:37.009Z,99961.22
2022-10-01T12:53:44.754Z,99956.84
2022-10-01T12:56:53.461Z,99959.28
2022-10-01T13:00:05.021Z,99950.50
2022-10-01T13:03:15.186Z,99934.16
2022-10-01T13:06:25.876Z,99940.13
2022-10-01T13:09:33.910Z,99921.69
2022-10-01T13:12:41.948Z,99922.34
2022-10-01T13:15:49.820Z,99912.50
2022-10-01T13:19:17.757Z,99903.84
2022-10-01T13:22:20.103Z,99911.03
2022-10-01T13:25:29.230Z,99905.09
2022-10-01T13:28:40.711Z,99910.06
2022-10-01T13:31:59.302Z,99885.03
2022-10-01T13:35:20.755Z,99879.25
2022-10-01T13:38:31.739Z,99884.91
2022-10-01T13:41:34.929Z,99885.16
2022-10-01T13:44:39.384Z,99871.59
2022-10-01T13:47:42.257Z,99870.09
2022-10-01T13:51:11.048Z,99865.31
2022-10-01T13:54:20.989Z,99870.16
2022-10-01T13:57:37.354Z,99860.66
2022-10-01T14:00:48.147Z,99863.94
2022-10-01T14:04:09.359Z,99846.44
2022-10-01T14:07:30.495Z,99852.09
2022-10-01T14:10:36.315Z,99861.66
2022-10-01T14:14:05.749Z,99865.53
2022-10-01T14:17:11.981Z,99866.22
2022-10-01T14:20:24.853Z,99860.50
2022-10-01T14:24:01.374Z,99865.28
2022-10-01T14:27:11.385Z,99867.66
2022-10-01T14:30:26.109Z,99874.97
2022-10-01T14:33:41.602Z,99875.50
2022-10-01T14:36:45.290Z,99872.03
2022-10-01T14:39:59.845Z,99858.97
2022-10-01T14:43:03.538Z,99861.03
2022-10-01T14:46:06.436Z,99850.72
2022-10-01T14:49:19.117Z,99844.00
2022-10-01T14:52:26.753Z,99842.81
2022-10-01T14:55:29.378Z,99841.25
2022-10-01T14:58:33.981Z,99825.34
2022-10-01T15:01:36.812Z,99836.13
2022-10-01T15:04:45.418Z,99827.75
2022-10-01T15:07:47.888Z,99840.50
2022-10-01T15:10:55.066Z,99843.69
2022-10-01T15:14:06.861Z,99842.13
2022-10-01T15:17:19.425Z,99842.50
2022-10-01T15:20:21.886Z,99853.28
2022-10-01T15:23:25.409Z,99848.50
2022-10-01T15:26:28.296Z,99855.66
2022-10-01T15:29:30.509Z,99860.81
2022-10-01T15:32:37.197Z,99864.34
2022-10-01T15:35:41.906Z,99869.09
2022-10-01T15:38:52.064Z,99872.28
2022-10-01T15:41:55.068Z,99882.22
2022-10-01T15:45:21.192Z,99876.63
2022-10-01T15:48:31.174Z,99869.03
2022-10-01T15:51:33.941Z,99887.31
2022-10-01T15:54:36.788Z,99884.09
2022-10-01T15:57:48.996Z,99875.28
2022-10-01T16:01:26.506Z,99875.28
2022-10-01T16:04:29.113Z,99884.78
2022-10-01T16:07:36.811Z,99879.56
2022-10-01T16:10:45.970Z,99884.28
2022-10-01T16:13:52.707Z,99881.41
2022-10-01T16:17:14.332Z,99890.12
2022-10-01T16:20:18.254Z,99887.31
2022-10-01T16:23:35.828Z,99880.09
2022-10-01T16:26:38.722Z,99885.22
2022-10-01T16:29:41.216Z,99878.78
2022-10-01T16:32:43.283Z,99887.50
2022-10-01T16:35:48.591Z,99881.88
2022-10-01T16:38:51.567Z,99877.06
2022-10-01T16:42:19.051Z,99881.81
2022-10-01T16:45:24.677Z,99896.84
2022-10-01T16:48:28.130Z,99897.59
2022-10-01T16:51:31.954Z,99901.50
2022-10-01T16:54:34.534Z,99895.13
2022-10-01T16:57:39.031Z,99897.47
2022-10-01T17:00:41.998Z,99899.44
2022-10-01T17:03:44.248Z,99889.88
2022-10-01T17:06:46.659Z,99891.00
2022-10-01T17:09:50.347Z,99873.94
2022-10-01T17:12:53.857Z,99878.25
2022-10-01T17:15:56.328Z,99880.56
2022-10-01T17:18:58.734Z,99875.75
2022-10-01T17:22:00.965Z,99880.06
2022-10-01T17:25:03.653Z,99880.41
2022-10-01T17:28:08.134Z,99876.81
2022-10-01T17:31:15.600Z,99873.19
2022-10-01T17:34:21.199Z,99869.47
2022-10-01T17:37:24.034Z,99882.59
2022-10-01T17:40:26.114Z,99879.37
2022-10-01T17:43:28.759Z,99878.53
2022-10-01T17:46:30.997Z,99883.19
2022-10-01T17:49:33.293Z,99894.22
2022-10-01T17:52:38.368Z,99890.16
2022-10-01T17:55:41.856Z,99900.00
2022-10-01T17:58:45.598Z,99894.78
2022-10-01T18:01:50.031Z,99897.88
2022-10-01T18:04:54.633Z,99899.81
2022-10-01T18:07:57.134Z,99896.19
2022-10-01T18:11:11.212Z,99899.72
2022-10-01T18:14:13.408Z,99893.75
2022-10-01T18:17:15.814Z,99894.91
2022-10-01T18:20:18.837Z,99890.56
2022-10-01T18:23:23.588Z,99900.03
2022-10-01T18:26:25.635Z,99931.72
2022-10-01T18:29:27.943Z,99925.31
2022-10-01T18:32:36.843Z,99931.63
2022-10-01T18:35:43.812Z,99941.09
2022-10-01T18:38:47.696Z,99937.88
2022-10-01T18:41:50.377Z,99944.16
2022-10-01T18:44:56.184Z,99953.66
2022-10-01T18:47:58.616Z,99958.78
2022-10-01T18:51:15.543Z,99959.50
2022-10-01T18:54:27.607Z,99966.25
2022-10-01T18:57:29.632Z,99964.63
2022-10-01T19:00:38.874Z,99961.44
2022-10-01T19:04:00.172Z,99962.25
2022-10-01T19:07:10.847Z,99959.47
2022-10-01T19:10:31.511Z,99966.19
2022-10-01T19:13:33.807Z,99969.31
2022-10-01T19:16:41.951Z,99963.75
2022-10-01T19:19:52.665Z,99974.06
2022-10-01T19:23:04.375Z,99972.47
2022-10-01T19:26:09.865Z,99962.19
2022-10-01T19:29:11.968Z,99966.09
2022-10-01T19:32:26.775Z,99969.28
2022-10-01T19:35:37.887Z,99981.09
2022-10-01T19:38:40.832Z,99976.22
2022-10-01T19:41:44.464Z,99968.72
2022-10-01T19:44:58.170Z,99973.03
2022-10-01T19:48:15.941Z,99980.19
2022-10-01T19:51:23.134Z,99974.62
2022-10-01T19:54:30.177Z,99979.44
2022-10-01T19:57:39.048Z,99980.59
2022-10-01T20:00:41.434Z,99987.75
2022-10-01T20:03:46.495Z,99990.88
2022-10-01T20:06:48.570Z,99984.19
2022-10-01T20:10:07.097Z,99973.91
2022-10-01T20:13:21.470Z,99986.56
2022-10-01T20:16:24.149Z,99983.78
2022-10-01T20:19:41.214Z,99985.41
2022-10-01T20:22:49.886Z,99989.75
2022-10-01T20:26:10.442Z,99994.16
2022-10-01T20:29:14.121Z,99996.91
2022-10-01T20:32:16.226Z,99988.22
2022-10-01T20:35:24.140Z,100000.91
2022-10-01T20:38:33.374Z,100012.00
2022-10-01T20:41:42.520Z,100004.50
2022-10-01T20:44:45.352Z,100007.28
2022-10-01T20:47:50.192Z,100018.38
2022-10-01T20:50:54.126Z,100021.13
2022-10-01T20:54:04.221Z,100023.47
2022-10-01T20:57:27.963Z,100031.00
2022-10-01T21:00:31.110Z,100032.97
2022-10-01T21:03:39.338Z,100042.44
2022-10-01T21:06:47.112Z,100045.59
2022-10-01T21:09:51.525Z,100059.81
2022-10-01T21:12:57.474Z,100060.59
2022-10-01T21:16:18.265Z,100076.00
2022-10-01T21:19:24.671Z,100067.25
2022-10-01T21:22:26.918Z,100071.19
2022-10-01T21:25:37.916Z,100078.28
2022-10-01T21:28:39.933Z,100086.09
2022-10-01T21:31:54.700Z,100091.94
2022-10-01T21:34:59.996Z,100101.78
2022-10-01T21:38:22.720Z,100087.41
2022-10-01T21:41:28.667Z,100096.03
2022-10-01T21:44:30.934Z,100106.94
2022-10-01T21:47:32.934Z,100102.50
2022-10-01T21:50:35.596Z,100097.69
2022-10-01T21:53:52.787Z,100094.41
2022-10-01T21:57:00.810Z,100094.72
2022-10-01T22:00:13.221Z,100080.00
2022-10-01T22:03:22.334Z,100083.75
2022-10-01T22:06:38.718Z,100089.59
2022-10-01T22:09:44.169Z,100079.59
2022-10-01T22:12:50.724Z,100082.28
2022-10-01T22:15:54.998Z,100098.03
2022-10-01T22:19:00.637Z,100102.63
2022-10-01T22:22:14.504Z,100094.72
2022-10-01T22:25:16.691Z,100084.69
2022-10-01T22:28:21.451Z,100080.25
2022-10-01T22:31:26.840Z,100072.69
2022-10-01T22:34:33.829Z,100076.53
2022-10-01T22:37:39.536Z,100081.63
2022-10-01T22:40:59.642Z,100088.66
2022-10-01T22:44:18.855Z,100092.63
2022-10-01T22:47:21.945Z,100104.03
2022-10-01T22:50:39.001Z,100109.13
2022-10-01T22:54:00.244Z,100100.72
2022-10-01T22:57:31.519Z,100118.50
2022-10-01T23:00:38.662Z,100128.75
2022-10-01T23:03:48.674Z,100098.06
2022-10-01T23:07:00.271Z,100143.69
2022-10-01T23:10:37.854Z,100146.78
2022-10-01T23:13:56.792Z,100130.56
2022-10-01T23:17:04.767Z,100138.50
2022-10-01T23:20:16.374Z,100112.00
2022-10-01T23:23:27.168Z,100111.63
2022-10-01T23:26:34.215Z,100118.41
2022-10-01T23:29:42.260Z,100115.66
2022-10-01T23:32:53.770Z,100118.84
2022-10-01T23:35:58.477Z,100110.22
2022-10-01T23:39:03.741Z,100126.44
2022-10-01T23:42:11.872Z,100133.59
2022-10-01T23:45:14.123Z,100130.81
2022-10-01T23:48:23.599Z,100136.34
2022-10-01T23:51:26.011Z,100126.88
2022-10-01T23:54:40.462Z,100124.91
2022-10-01T23:57:43.099Z,100124.09
